createdAt,value
2019-04-20T00:01:22.747Z,9.80
2019-04-20T00:03:49.024Z,9.70
2019-04-20T00:06:19.488Z,9.70
2019-04-20T00:08:55.488Z,9.70
2019-04-20T00:11:26.314Z,9.70
2019-04-20T00:13:57.709Z,9.70
2019-04-20T00:16:21.079Z,9.70
2019-04-20T00:18:53.934Z,9.70
2019-04-20T00:21:42.788Z,9.70
2019-04-20T00:24:22.880Z,9.70
2019-04-20T00:27:22.058Z,9.70
2019-04-20T00:29:35.456Z,9.60
2019-04-20T00:31:59.376Z,9.70
2019-04-20T00:34:22.845Z,9.70
2019-04-20T00:36:47.523Z,9.70
2019-04-20T00:39:17.169Z,9.70
2019-04-20T00:41:52.097Z,9.70
2019-04-20T00:44:23.365Z,9.70
2019-04-20T00:47:04.767Z,9.70
2019-04-20T00:49:36.240Z,9.60
2019-04-20T00:52:18.817Z,9.60
2019-04-20T00:54:20.151Z,9.50
2019-04-20T00:56:52.056Z,9.50
2019-04-20T00:59:35.468Z,9.50
2019-04-20T01:02:10.607Z,9.50
2019-04-20T01:04:44.121Z,9.50
2019-04-20T01:07:10.768Z,9.40
2019-04-20T01:09:30.823Z,9.40
2019-04-20T01:12:05.137Z,9.40
2019-04-20T01:14:37.965Z,9.40
2019-04-20T01:17:11.410Z,9.40
2019-04-20T01:19:31.076Z,9.40
2019-04-20T01:22:05.245Z,9.30
2019-04-20T01:24:35.375Z,9.30
2019-04-20T01:27:04.154Z,9.30
2019-04-20T01:29:39.370Z,9.30
2019-04-20T01:32:15.621Z,9.20
2019-04-20T01:34:49.660Z,9.10
2019-04-20T01:37:17.914Z,9.20
2019-04-20T01:39:41.495Z,9.20
2019-04-20T01:42:04.578Z,9.20
2019-04-20T01:44:40.188Z,9.20
2019-04-20T01:47:06.333Z,9.10
2019-04-20T01:49:36.829Z,9.00
2019-04-20T01:52:13.870Z,8.90
2019-04-20T01:54:58.023Z,8.90
2019-04-20T01:57:26.142Z,8.80
2019-04-20T02:00:14.449Z,8.80
2019-04-20T02:02:56.504Z,8.80
2019-04-20T02:05:24.719Z,8.80
2019-04-20T02:07:55.048Z,8.80
2019-04-20T02:10:31.203Z,8.80
2019-04-20T02:12:57.921Z,8.80
2019-04-20T02:15:32.715Z,8.80
2019-04-20T02:18:07.673Z,8.80
2019-04-20T02:20:44.604Z,8.80
2019-04-20T02:23:12.698Z,8.80
2019-04-20T02:25:26.974Z,8.80
2019-04-20T02:28:14.775Z,8.80
2019-04-20T02:31:06.509Z,8.70
2019-04-20T02:33:59.244Z,8.70
2019-04-20T02:36:42.969Z,8.70
2019-04-20T02:41:20.150Z,8.70
2019-04-20T02:46:28.603Z,8.80
2019-04-20T02:49:06.043Z,8.80
2019-04-20T02:51:22.617Z,8.70
2019-04-20T02:54:13.117Z,8.70
2019-04-20T02:56:32.723Z,8.70
2019-04-20T02:59:02.499Z,8.70
2019-04-20T03:01:29.454Z,8.70
2019-04-20T03:03:46.246Z,8.80
2019-04-20T03:06:22.763Z,8.80
2019-04-20T03:09:04.301Z,8.80
2019-04-20T03:11:40.419Z,8.80
2019-04-20T03:14:02.212Z,8.80
2019-04-20T03:16:32.407Z,8.80
2019-04-20T03:18:58.473Z,8.80
2019-04-20T03:21:38.683Z,8.80
2019-04-20T03:24:11.720Z,8.80
2019-04-20T03:26:57.943Z,8.80
2019-04-20T03:29:40.846Z,8.70
2019-04-20T03:37:28.101Z,8.70
2019-04-20T03:39:40.505Z,8.70
2019-04-20T03:42:01.066Z,8.70
2019-04-20T03:44:34.031Z,8.70
2019-04-20T03:47:06.827Z,8.70
2019-04-20T03:49:55.066Z,8.70
2019-04-20T03:52:27.708Z,8.60
2019-04-20T03:55:10.285Z,8.60
2019-04-20T03:57:47.740Z,8.60
2019-04-20T04:00:26.476Z,8.60
2019-04-20T04:03:10.501Z,8.60
2019-04-20T04:05:27.894Z,8.50
2019-04-20T04:07:45.265Z,8.50
2019-04-20T04:10:27.254Z,8.50
2019-04-20T04:13:16.892Z,8.40
2019-04-20T04:15:53.276Z,8.40
2019-04-20T04:18:26.127Z,8.40
2019-04-20T04:20:57.297Z,8.60
2019-04-20T04:23:38.216Z,8.60
2019-04-20T04:26:08.605Z,8.50
2019-04-20T04:28:36.991Z,8.30
2019-04-20T04:31:14.627Z,8.30
2019-04-20T04:36:10.538Z,8.40
2019-04-20T04:41:19.986Z,8.50
2019-04-20T04:43:44.443Z,8.50
2019-04-20T04:45:57.463Z,8.50
2019-04-20T04:48:33.029Z,8.60
2019-04-20T04:51:03.869Z,8.60
2019-04-20T04:53:41.732Z,8.60
2019-04-20T04:56:04.901Z,8.70
2019-04-20T04:58:29.823Z,8.70
2019-04-20T05:01:06.605Z,8.70
2019-04-20T05:03:44.704Z,8.70
2019-04-20T05:06:20.971Z,8.70
2019-04-20T05:08:38.625Z,8.70
2019-04-20T05:11:03.235Z,8.70
2019-04-20T05:13:37.072Z,8.70
2019-04-20T05:16:16.904Z,8.70
2019-04-20T05:18:57.884Z,8.70
2019-04-20T05:21:26.022Z,8.80
2019-04-20T05:23:47.918Z,8.80
2019-04-20T05:26:42.439Z,8.80
2019-04-20T05:29:01.361Z,8.90
2019-04-20T05:31:30.883Z,8.90
2019-04-20T05:34:19.980Z,8.90
2019-04-20T05:36:46.277Z,8.90
2019-04-20T05:39:23.649Z,9.00
2019-04-20T05:41:44.084Z,9.00
2019-04-20T05:44:12.701Z,9.10
2019-04-20T05:46:48.252Z,9.20
2019-04-20T05:49:22.067Z,9.30
2019-04-20T05:51:49.846Z,9.30
2019-04-20T05:54:23.312Z,9.40
2019-04-20T05:56:52.497Z,9.50
2019-04-20T05:59:23.431Z,9.50
2019-04-20T06:02:01.389Z,9.60
2019-04-20T06:04:44.532Z,9.70
2019-04-20T06:06:55.209Z,9.80
2019-04-20T06:09:30.238Z,9.90
2019-04-20T06:12:07.591Z,10.00
2019-04-20T06:14:43.163Z,10.20
2019-04-20T06:17:20.974Z,10.40
2019-04-20T06:19:44.194Z,10.60
2019-04-20T06:22:37.892Z,10.90
2019-04-20T06:25:24.116Z,11.10
2019-04-20T06:27:34.217Z,11.20
2019-04-20T06:30:08.562Z,11.30
2019-04-20T06:32:59.252Z,11.40
2019-04-20T06:35:45.487Z,11.70
2019-04-20T06:38:23.194Z,11.90
2019-04-20T06:40:47.392Z,12.20
2019-04-20T06:43:05.490Z,12.30
2019-04-20T06:45:33.770Z,12.40
2019-04-20T06:48:12.261Z,12.50
2019-04-20T06:50:32.601Z,12.70
2019-04-20T06:53:22.061Z,12.70
2019-04-20T06:55:49.759Z,12.80
2019-04-20T06:58:31.926Z,12.90
2019-04-20T07:00:46.474Z,12.90
2019-04-20T07:03:30.607Z,13.00
2019-04-20T07:05:47.787Z,13.10
2019-04-20T07:08:34.588Z,13.40
2019-04-20T07:10:54.546Z,13.30
2019-04-20T07:13:12.870Z,13.20
2019-04-20T07:15:46.470Z,13.20
2019-04-20T07:18:24.571Z,13.30
2019-04-20T07:23:26.912Z,13.50
2019-04-20T07:26:02.136Z,13.60
2019-04-20T07:28:35.339Z,13.70
2019-04-20T07:30:58.251Z,13.70
2019-04-20T07:33:29.656Z,13.80
2019-04-20T07:35:56.007Z,13.90
2019-04-20T07:38:34.286Z,14.00
2019-04-20T07:40:59.614Z,14.10
2019-04-20T07:43:29.985Z,14.10
2019-04-20T07:46:01.846Z,14.20
2019-04-20T07:48:30.497Z,14.40
2019-04-20T07:50:55.451Z,14.60
2019-04-20T07:53:25.388Z,14.70
2019-04-20T07:56:05.134Z,14.80
2019-04-20T07:58:25.175Z,14.90
2019-04-20T08:01:07.987Z,15.00
2019-04-20T08:03:44.200Z,15.10
2019-04-20T08:06:14.508Z,15.20
2019-04-20T08:08:57.102Z,15.20
2019-04-20T08:11:36.610Z,15.30
2019-04-20T08:14:06.046Z,15.40
2019-04-20T08:19:05.178Z,15.50
2019-04-20T08:21:39.141Z,15.60
2019-04-20T08:24:07.025Z,15.80
2019-04-20T08:26:23.507Z,15.90
2019-04-20T08:28:55.267Z,16.10
2019-04-20T08:31:47.366Z,16.20
2019-04-20T08:34:38.377Z,16.30
2019-04-20T08:37:01.364Z,16.50
2019-04-20T08:39:45.375Z,16.60
2019-04-20T08:42:06.329Z,16.80
2019-04-20T08:44:55.187Z,16.80
2019-04-20T08:47:20.310Z,16.80
2019-04-20T08:49:41.327Z,16.90
2019-04-20T08:52:31.974Z,16.90
2019-04-20T08:54:34.415Z,17.10
2019-04-20T08:56:55.367Z,17.20
2019-04-20T08:59:21.211Z,17.40
2019-04-20T09:01:51.065Z,17.30
2019-04-20T09:04:29.549Z,17.40
2019-04-20T09:07:03.998Z,17.60
2019-04-20T09:12:11.544Z,17.80
2019-04-20T09:14:23.669Z,17.90
2019-04-20T09:17:00.285Z,17.80
2019-04-20T09:19:34.632Z,18.10
2019-04-20T09:22:24.300Z,18.00
2019-04-20T09:25:13.399Z,18.00
2019-04-20T09:27:26.875Z,18.10
2019-04-20T09:30:06.206Z,18.20
2019-04-20T09:32:35.454Z,18.30
2019-04-20T09:35:07.823Z,18.20
2019-04-20T09:37:43.544Z,18.30
2019-04-20T09:40:28.275Z,18.30
2019-04-20T09:42:53.016Z,18.40
2019-04-20T09:45:33.915Z,18.40
2019-04-20T09:47:58.374Z,18.40
2019-04-20T09:50:43.757Z,18.50
2019-04-20T09:53:14.333Z,18.70
2019-04-20T09:55:46.881Z,18.80
2019-04-20T09:58:13.546Z,18.90
2019-04-20T10:01:00.774Z,19.10
2019-04-20T10:03:16.615Z,19.20
2019-04-20T10:05:49.638Z,19.30
2019-04-20T10:08:19.665Z,19.40
2019-04-20T10:10:51.197Z,19.60
2019-04-20T10:13:21.640Z,19.60
2019-04-20T10:15:50.877Z,19.70
2019-04-20T10:18:21.772Z,19.60
2019-04-20T10:20:51.621Z,19.70
2019-04-20T10:23:22.697Z,19.90
2019-04-20T10:25:51.855Z,20.00
2019-04-20T10:28:21.549Z,20.00
2019-04-20T10:30:50.871Z,20.10
2019-04-20T10:33:19.911Z,20.20
2019-04-20T10:35:49.648Z,20.30
2019-04-20T10:38:23.321Z,20.30
2019-04-20T10:41:01.896Z,20.40
2019-04-20T10:43:23.964Z,20.30
2019-04-20T10:45:53.181Z,20.50
2019-04-20T10:48:23.499Z,20.60
2019-04-20T10:50:55.274Z,20.70
2019-04-20T10:53:24.266Z,20.70
2019-04-20T10:55:53.669Z,20.70
2019-04-20T10:58:22.804Z,20.80
2019-04-20T11:00:51.945Z,20.80
2019-04-20T11:03:22.778Z,20.90
2019-04-20T11:05:52.953Z,21.00
2019-04-20T11:08:22.455Z,21.00
2019-04-20T11:11:03.441Z,21.20
2019-04-20T11:13:25.444Z,21.20
2019-04-20T11:15:55.104Z,21.30
2019-04-20T11:18:25.053Z,21.60
2019-04-20T11:20:55.328Z,21.90
2019-04-20T11:23:24.529Z,22.10
2019-04-20T11:25:53.795Z,22.20
2019-04-20T11:28:23.975Z,22.10
2019-04-20T11:30:54.239Z,22.30
2019-04-20T11:33:24.541Z,22.50
2019-04-20T11:35:54.981Z,22.50
2019-04-20T11:38:26.101Z,22.70
2019-04-20T11:41:09.958Z,22.70
2019-04-20T11:43:26.101Z,22.80
2019-04-20T11:45:56.429Z,23.00
2019-04-20T11:48:25.971Z,22.70
2019-04-20T11:50:56.104Z,22.80
2019-04-20T11:53:26.859Z,22.80
2019-04-20T11:55:58.486Z,22.80
2019-04-20T11:58:27.977Z,22.90
2019-04-20T12:01:05.062Z,23.00
2019-04-20T12:03:37.874Z,23.00
2019-04-20T12:06:04.705Z,23.00
2019-04-20T12:08:32.668Z,23.10
2019-04-20T12:11:18.808Z,23.00
2019-04-20T12:13:34.402Z,22.90
2019-04-20T12:16:03.618Z,22.80
2019-04-20T12:18:33.695Z,22.70
2019-04-20T12:21:03.081Z,22.70
2019-04-20T12:23:34.004Z,22.70
2019-04-20T12:26:03.032Z,22.60
2019-04-20T12:28:33.616Z,22.60
2019-04-20T12:31:11.420Z,22.60
2019-04-20T12:33:34.550Z,22.60
2019-04-20T12:36:06.008Z,22.40
2019-04-20T12:38:35.229Z,22.30
2019-04-20T12:41:06.126Z,22.30
2019-04-20T12:43:36.016Z,22.30
2019-04-20T12:46:05.647Z,22.30
2019-04-20T12:48:35.548Z,22.30
2019-04-20T12:51:05.768Z,22.30
2019-04-20T12:53:35.025Z,22.30
2019-04-20T12:56:06.414Z,22.30
2019-04-20T12:58:37.159Z,22.20
2019-04-20T13:01:08.094Z,22.20
2019-04-20T13:03:37.365Z,22.20
2019-04-20T13:06:07.883Z,22.30
2019-04-20T13:08:43.423Z,22.30
2019-04-20T13:11:14.011Z,22.30
2019-04-20T13:13:50.567Z,22.20
2019-04-20T13:16:23.767Z,22.00
2019-04-20T13:18:55.272Z,22.10
2019-04-20T13:21:27.602Z,22.00
2019-04-20T13:23:56.777Z,21.90
2019-04-20T13:26:27.050Z,22.00
2019-04-20T13:28:57.131Z,22.00
2019-04-20T13:31:29.696Z,22.00
2019-04-20T13:33:59.128Z,22.10
2019-04-20T13:36:28.587Z,22.20
2019-04-20T13:38:59.421Z,22.10
2019-04-20T13:41:29.797Z,22.20
2019-04-20T13:44:01.232Z,22.20
2019-04-20T13:46:31.244Z,22.30
2019-04-20T13:49:00.869Z,22.30
2019-04-20T13:51:30.823Z,22.20
2019-04-20T13:54:01.486Z,21.80
2019-04-20T13:56:32.265Z,21.70
2019-04-20T13:59:03.778Z,21.60
2019-04-20T14:01:50.550Z,21.60
2019-04-20T14:04:23.105Z,21.40
2019-04-20T14:06:57.567Z,21.40
2019-04-20T14:09:27.576Z,21.40
2019-04-20T14:12:04.744Z,21.30
2019-04-20T14:14:28.956Z,21.30
2019-04-20T14:16:59.467Z,21.30
2019-04-20T14:19:29.333Z,21.50
2019-04-20T14:21:59.545Z,21.50
2019-04-20T14:24:28.966Z,21.60
2019-04-20T14:26:59.005Z,21.50
2019-04-20T14:29:30.676Z,21.50
2019-04-20T14:32:02.292Z,21.40
2019-04-20T14:34:31.123Z,21.40
2019-04-20T14:37:00.548Z,21.40
2019-04-20T14:39:30.269Z,21.30
2019-04-20T14:42:00.438Z,21.30
2019-04-20T14:44:29.890Z,21.30
2019-04-20T14:46:59.991Z,21.20
2019-04-20T14:49:30.398Z,21.20
2019-04-20T14:52:01.561Z,21.10
2019-04-20T14:54:31.838Z,21.00
2019-04-20T14:57:03.441Z,20.90
2019-04-20T14:59:37.816Z,20.90
2019-04-20T15:02:12.564Z,20.90
2019-04-20T15:04:43.272Z,20.90
2019-04-20T15:07:13.051Z,21.00
2019-04-20T15:09:42.778Z,21.10
2019-04-20T15:12:12.932Z,21.20
2019-04-20T15:14:42.808Z,21.30
2019-04-20T15:17:13.750Z,21.30
2019-04-20T15:19:47.521Z,21.50
2019-04-20T15:22:33.882Z,20.90
2019-04-20T15:25:03.275Z,20.40
2019-04-20T15:27:35.209Z,20.10
2019-04-20T15:30:06.602Z,19.90
2019-04-20T15:32:36.853Z,19.70
2019-04-20T15:35:09.029Z,19.70
2019-04-20T15:37:39.490Z,19.40
2019-04-20T15:40:09.200Z,19.20
2019-04-20T15:42:51.473Z,18.50
2019-04-20T15:45:11.430Z,18.20
2019-04-20T15:47:40.351Z,18.00
2019-04-20T15:50:09.674Z,17.80
2019-04-20T15:52:44.988Z,17.20
2019-04-20T15:55:19.683Z,16.50
2019-04-20T15:57:40.668Z,15.90
2019-04-20T16:00:10.899Z,15.60
2019-04-20T16:02:45.340Z,15.50
2019-04-20T16:05:33.231Z,15.50
2019-04-20T16:08:21.884Z,15.10
2019-04-20T16:10:54.862Z,14.90
2019-04-20T16:13:35.203Z,14.40
2019-04-20T16:15:56.011Z,14.20
2019-04-20T16:18:25.203Z,14.10
2019-04-20T16:21:00.415Z,14.00
2019-04-20T16:23:25.025Z,14.00
2019-04-20T16:25:59.982Z,14.00
2019-04-20T16:28:31.924Z,13.90
2019-04-20T16:31:01.490Z,13.90
2019-04-20T16:33:34.525Z,13.90
2019-04-20T16:36:04.758Z,14.00
2019-04-20T16:38:35.140Z,14.10
2019-04-20T16:41:04.287Z,14.20
2019-04-20T16:43:40.326Z,14.30
2019-04-20T16:46:05.624Z,14.30
2019-04-20T16:48:35.942Z,14.30
2019-04-20T16:51:13.187Z,14.20
2019-04-20T16:53:43.598Z,14.10
2019-04-20T16:56:14.509Z,14.10
2019-04-20T16:58:48.287Z,14.20
2019-04-20T17:01:17.088Z,14.40
2019-04-20T17:03:54.529Z,14.50
2019-04-20T17:06:16.477Z,14.60
2019-04-20T17:08:46.489Z,14.50
2019-04-20T17:11:16.061Z,14.20
2019-04-20T17:13:49.700Z,14.10
2019-04-20T17:16:15.724Z,14.10
2019-04-20T17:18:47.874Z,14.10
2019-04-20T17:21:23.213Z,14.00
2019-04-20T17:23:49.345Z,14.10
2019-04-20T17:26:36.734Z,14.10
2019-04-20T17:29:17.953Z,14.20
2019-04-20T17:31:57.817Z,14.20
2019-04-20T17:34:44.011Z,14.20
2019-04-20T17:36:57.860Z,14.10
2019-04-20T17:39:37.325Z,14.10
2019-04-20T17:42:14.654Z,14.10
2019-04-20T17:44:42.853Z,14.20
2019-04-20T17:47:11.526Z,14.10
2019-04-20T17:49:39.384Z,14.00
2019-04-20T17:52:26.554Z,13.90
2019-04-20T17:54:41.304Z,13.80
2019-04-20T17:57:11.068Z,13.70
2019-04-20T17:59:47.270Z,13.60
2019-04-20T18:02:47.477Z,13.60
2019-04-20T18:05:25.632Z,13.50
2019-04-20T18:07:44.847Z,13.50
2019-04-20T18:10:17.221Z,13.40
2019-04-20T18:12:37.415Z,13.40
2019-04-20T18:15:21.729Z,13.40
2019-04-20T18:18:07.197Z,13.40
2019-04-20T18:20:28.050Z,13.20
2019-04-20T18:22:58.662Z,12.90
2019-04-20T18:25:57.432Z,12.80
2019-04-20T18:28:13.647Z,12.50
2019-04-20T18:30:51.452Z,12.30
2019-04-20T18:33:13.669Z,12.10
2019-04-20T18:35:46.010Z,12.00
2019-04-20T18:38:16.518Z,12.00
2019-04-20T18:40:53.446Z,12.00
2019-04-20T18:43:20.477Z,11.90
2019-04-20T18:46:03.727Z,11.90
2019-04-20T18:48:39.252Z,11.80
2019-04-20T18:50:48.416Z,11.80
2019-04-20T18:53:28.390Z,11.80
2019-04-20T18:55:55.151Z,11.80
2019-04-20T18:58:19.178Z,11.90
2019-04-20T19:00:51.697Z,11.90
2019-04-20T19:03:25.767Z,11.80
2019-04-20T19:05:49.633Z,11.80
2019-04-20T19:08:19.265Z,11.60
2019-04-20T19:10:57.582Z,11.40
2019-04-20T19:13:30.426Z,11.30
2019-04-20T19:16:09.428Z,11.30
2019-04-20T19:18:45.262Z,11.30
2019-04-20T19:21:01.288Z,11.20
2019-04-20T19:23:30.199Z,11.10
2019-04-20T19:26:04.439Z,11.00
2019-04-20T19:28:37.819Z,11.00
2019-04-20T19:31:14.706Z,11.00
2019-04-20T19:33:52.435Z,10.90
2019-04-20T19:36:15.124Z,10.90
2019-04-20T19:38:48.896Z,10.90
2019-04-20T19:41:18.732Z,10.80
2019-04-20T19:43:45.687Z,10.80
2019-04-20T19:48:48.675Z,10.80
2019-04-20T19:51:29.893Z,10.70
2019-04-20T19:53:57.252Z,10.70
2019-04-20T19:56:17.152Z,10.70
2019-04-20T19:58:53.340Z,10.60
2019-04-20T20:01:06.744Z,10.50
2019-04-20T20:03:37.377Z,10.40
2019-04-20T20:06:12.023Z,10.40
2019-04-20T20:08:39.974Z,10.50
2019-04-20T20:11:09.633Z,10.50
2019-04-20T20:13:44.693Z,10.40
2019-04-20T20:16:14.489Z,10.30
2019-04-20T20:18:53.356Z,10.20
2019-04-20T20:21:22.252Z,10.10
2019-04-20T20:23:41.806Z,10.20
2019-04-20T20:26:22.029Z,10.20
2019-04-20T20:28:49.468Z,10.20
2019-04-20T20:31:27.521Z,10.10
2019-04-20T20:33:59.028Z,10.00
2019-04-20T20:36:19.310Z,9.90
2019-04-20T20:38:50.218Z,9.90
2019-04-20T20:41:23.603Z,9.90
2019-04-20T20:43:56.320Z,9.80
2019-04-20T20:46:23.970Z,9.90
2019-04-20T20:49:17.022Z,9.90
2019-04-20T20:51:44.278Z,9.80
2019-04-20T20:53:59.034Z,9.80
2019-04-20T20:56:24.413Z,9.80
2019-04-20T20:58:59.193Z,9.80
2019-04-20T21:01:23.697Z,9.80
2019-04-20T21:03:52.604Z,9.80
2019-04-20T21:06:20.275Z,9.80
2019-04-20T21:08:52.341Z,9.80
2019-04-20T21:11:25.324Z,9.90
2019-04-20T21:13:52.124Z,9.80
2019-04-20T21:16:25.617Z,9.90
2019-04-20T21:19:10.486Z,9.80
2019-04-20T21:21:37.090Z,9.90
2019-04-20T21:24:00.414Z,9.90
2019-04-20T21:26:30.450Z,9.90
2019-04-20T21:28:55.491Z,9.90
2019-04-20T21:31:28.976Z,9.90
2019-04-20T21:33:55.188Z,9.80
2019-04-20T21:36:28.277Z,9.80
2019-04-20T21:38:55.833Z,9.70
2019-04-20T21:41:26.090Z,9.60
2019-04-20T21:43:55.982Z,9.70
2019-04-20T21:46:31.925Z,9.70
2019-04-20T21:49:08.142Z,9.70
2019-04-20T21:51:37.086Z,9.70
2019-04-20T21:53:58.734Z,9.70
2019-04-20T21:56:28.086Z,9.60
2019-04-20T21:59:02.093Z,9.60
2019-04-20T22:01:35.718Z,9.70
2019-04-20T22:03:58.615Z,9.70
2019-04-20T22:06:28.505Z,9.60
2019-04-20T22:09:01.091Z,9.60
2019-04-20T22:11:27.903Z,9.70
2019-04-20T22:13:57.450Z,9.60
2019-04-20T22:16:36.409Z,9.60
2019-04-20T22:19:14.584Z,9.70
2019-04-20T22:21:43.716Z,9.70
2019-04-20T22:24:09.481Z,9.70
2019-04-20T22:26:39.541Z,9.70
2019-04-20T22:29:00.444Z,9.70
2019-04-20T22:31:29.956Z,9.70
2019-04-20T22:34:04.442Z,9.70
2019-04-20T22:36:37.821Z,9.70
2019-04-20T22:39:18.688Z,9.70
2019-04-20T22:41:53.632Z,9.70
2019-04-20T22:44:22.712Z,9.70
2019-04-20T22:46:52.193Z,9.70
2019-04-20T22:49:38.844Z,9.80
2019-04-20T22:51:59.530Z,9.80
2019-04-20T22:54:39.745Z,9.80
2019-04-20T22:57:03.615Z,9.80
2019-04-20T22:59:37.021Z,9.90
2019-04-20T23:02:00.013Z,10.00
2019-04-20T23:04:24.824Z,10.00
2019-04-20T23:06:54.116Z,10.00
2019-04-20T23:09:24.800Z,10.00
2019-04-20T23:12:03.017Z,10.00
2019-04-20T23:14:24.667Z,9.90
2019-04-20T23:16:55.562Z,9.90
2019-04-20T23:19:35.762Z,9.90
2019-04-20T23:21:59.729Z,9.90
2019-04-20T23:24:24.885Z,9.90
2019-04-20T23:26:55.253Z,9.90
2019-04-20T23:29:28.339Z,10.00
2019-04-20T23:32:01.402Z,10.00
2019-04-20T23:34:29.037Z,10.00
2019-04-20T23:36:56.779Z,10.00
2019-04-20T23:39:34.036Z,10.00
2019-04-20T23:42:00.206Z,10.00
2019-04-20T23:44:40.133Z,10.00
2019-04-20T23:47:20.179Z,10.00
2019-04-20T23:50:11.321Z,10.00
2019-04-20T23:52:43.218Z,10.00
2019-04-20T23:54:59.186Z,10.00
2019-04-20T23:57:24.132Z,10.00
2019-04-20T23:59:53.788Z,10.00
